Time;durP1;ratioP1;P1;durP2;ratioP2;P2;SDS_P1;SDS_P2;PMS_P1;PMS_P2;Temp;Humidity;BMP_temperature;BMP_pressure;BME280_temperature;BME280_humidity;BME280_pressure;Samples;Min_cycle;Max_cycle;Signal;HPM_P1;HPM_P2
2022/12/08 00:01:37;;;;;;;12.05;9.60;;;3.50;95.40;;;;;;4951796;29;20190;-64
2022/12/08 00:04:05;;;;;;;11.70;9.48;;;3.50;95.20;;;;;;4952767;29;20193;-64
2022/12/08 00:09:25;;;;;;;9.43;7.50;;;3.50;95.10;;;;;;4952709;29;20215;-64
2022/12/08 00:11:56;;;;;;;14.85;9.65;;;3.50;95.10;;;;;;4955471;29;20309;-64
2022/12/08 00:14:27;;;;;;;13.23;10.32;;;3.50;95.20;;;;;;4951847;29;20241;-64
2022/12/08 00:16:54;;;;;;;12.35;9.73;;;3.40;95.20;;;;;;4956579;29;21530;-64
2022/12/08 00:19:27;;;;;;;11.27;9.32;;;3.40;95.30;;;;;;4955586;29;20201;-64
2022/12/08 00:21:54;;;;;;;14.38;10.18;;;3.50;95.40;;;;;;4956457;29;20193;-65
2022/12/08 00:24:22;;;;;;;23.10;13.52;;;3.50;95.20;;;;;;4950557;29;20273;-64
2022/12/08 00:26:50;;;;;;;13.68;10.48;;;3.50;95.20;;;;;;4956284;29;20275;-65
2022/12/08 00:29:20;;;;;;;21.00;12.18;;;3.50;95.10;;;;;;4955405;29;20712;-65
2022/12/08 00:31:49;;;;;;;24.05;14.65;;;3.40;95.10;;;;;;4956592;29;20275;-65
2022/12/08 00:34:20;;;;;;;21.60;13.88;;;3.50;95.60;;;;;;4955138;29;20261;-65
2022/12/08 00:36:47;;;;;;;18.48;11.85;;;3.50;95.00;;;;;;4955535;29;20580;-64
2022/12/08 00:39:16;;;;;;;19.70;12.20;;;3.50;95.00;;;;;;4955140;29;20186;-64
2022/12/08 00:44:28;;;;;;;16.80;11.07;;;3.40;94.90;;;;;;4955708;29;20200;-64
2022/12/08 00:46:56;;;;;;;18.75;11.82;;;3.30;95.10;;;;;;4956234;29;20233;-65
2022/12/08 00:49:23;;;;;;;23.60;12.80;;;3.30;95.10;;;;;;4956543;29;20189;-64
2022/12/08 00:51:50;;;;;;;20.67;12.35;;;3.30;95.20;;;;;;4956695;29;20652;-65
2022/12/08 00:54:19;;;;;;;15.75;10.95;;;3.30;95.20;;;;;;4957475;29;20218;-65
2022/12/08 00:56:46;;;;;;;15.70;9.90;;;3.30;95.20;;;;;;4956869;29;20649;-65
2022/12/08 00:59:13;;;;;;;16.35;9.73;;;3.30;95.10;;;;;;4956731;29;20671;-64
2022/12/08 01:01:41;;;;;;;17.15;9.52;;;3.20;95.00;;;;;;4956146;29;20198;-64
2022/12/08 01:04:14;;;;;;;14.65;9.75;;;3.20;95.20;;;;;;4955564;29;20272;-65
2022/12/08 01:06:41;;;;;;;15.43;10.57;;;3.20;95.40;;;;;;4956361;29;20667;-64
2022/12/08 01:09:10;;;;;;;14.80;9.95;;;3.20;95.40;;;;;;4955695;29;20581;-64
2022/12/08 01:11:37;;;;;;;15.30;10.77;;;3.20;95.40;;;;;;4956717;29;20244;-65
2022/12/08 01:14:04;;;;;;;17.30;10.65;;;3.30;95.60;;;;;;4956528;29;20700;-64
2022/12/08 01:16:33;;;;;;;13.65;9.48;;;3.30;95.40;;;;;;4957225;29;20237;-64
2022/12/08 01:19:01;;;;;;;20.27;10.05;;;3.20;95.30;;;;;;4955984;28;20248;-65
2022/12/08 01:21:30;;;;;;;15.40;10.60;;;3.20;95.30;;;;;;4956687;29;20660;-64
2022/12/08 01:23:59;;;;;;;15.23;10.60;;;3.20;95.20;;;;;;4956826;29;20198;-65
2022/12/08 01:26:26;;;;;;;15.15;11.30;;;3.20;95.10;;;;;;4937540;29;20201;-65
2022/12/08 01:28:55;;;;;;;17.15;11.02;;;3.20;95.20;;;;;;4937320;29;20237;-65
2022/12/08 01:31:25;;;;;;;23.27;11.68;;;3.10;95.30;;;;;;4955640;29;20241;-65
2022/12/08 01:33:53;;;;;;;16.20;12.07;;;3.10;95.50;;;;;;4956560;29;20699;-65
2022/12/08 01:36:21;;;;;;;14.82;10.63;;;3.10;95.40;;;;;;4955676;29;20253;-65
2022/12/08 01:38:51;;;;;;;15.63;11.20;;;3.00;95.30;;;;;;4956419;29;20657;-65
2022/12/08 01:41:21;;;;;;;15.13;10.35;;;2.90;95.40;;;;;;4955874;29;20599;-64
2022/12/08 01:43:59;;;;;;;16.98;11.20;;;2.90;95.50;;;;;;4956626;29;20229;-64
2022/12/08 01:46:28;;;;;;;13.77;10.80;;;2.90;95.60;;;;;;4954555;29;20190;-65
2022/12/08 01:49:00;;;;;;;19.45;12.02;;;3.00;95.60;;;;;;4956040;29;20198;-64
2022/12/08 01:51:28;;;;;;;14.50;11.15;;;2.90;95.40;;;;;;4955579;29;20185;-65
2022/12/08 01:53:57;;;;;;;15.93;11.15;;;2.90;95.20;;;;;;4956037;29;20225;-64
2022/12/08 01:56:31;;;;;;;17.30;11.77;;;2.90;95.30;;;;;;4955158;29;20186;-64
2022/12/08 01:58:59;;;;;;;21.95;12.95;;;2.80;95.30;;;;;;4956311;29;20189;-65
2022/12/08 02:01:26;;;;;;;21.55;11.60;;;2.80;95.60;;;;;;4955835;29;20241;-65
2022/12/08 02:03:57;;;;;;;19.92;12.32;;;2.80;95.80;;;;;;4955779;29;20256;-64
2022/12/08 02:06:26;;;;;;;23.05;13.88;;;2.80;95.50;;;;;;4955038;28;20217;-64
2022/12/08 02:09:01;;;;;;;17.38;12.40;;;2.90;95.60;;;;;;4955934;29;20194;-64
2022/12/08 02:11:29;;;;;;;17.38;12.75;;;2.90;95.70;;;;;;4954456;29;20649;-65
2022/12/08 02:13:57;;;;;;;16.35;10.88;;;2.80;95.70;;;;;;4955836;29;20261;-64
2022/12/08 02:16:39;;;;;;;18.23;11.82;;;2.80;95.70;;;;;;4955095;29;20222;-65
2022/12/08 02:19:31;;;;;;;15.95;10.40;;;2.80;95.80;;;;;;4955901;29;20205;-64
2022/12/08 02:22:04;;;;;;;18.38;11.15;;;2.80;95.90;;;;;;4955158;29;20190;-65
2022/12/08 02:24:38;;;;;;;16.48;11.00;;;2.80;96.10;;;;;;4955486;29;20205;-65
2022/12/08 02:27:28;;;;;;;17.55;11.05;;;2.70;96.10;;;;;;4955231;29;20221;-64
2022/12/08 02:30:19;;;;;;;23.92;13.98;;;2.70;96.10;;;;;;4954918;28;20198;-64
2022/12/08 02:33:29;;;;;;;23.45;12.25;;;2.70;96.10;;;;;;4936685;29;20250;-65
2022/12/08 02:36:04;;;;;;;22.48;12.50;;;2.70;96.20;;;;;;4943204;29;20268;-64
2022/12/08 02:38:52;;;;;;;21.40;10.95;;;2.80;96.10;;;;;;4955541;29;20224;-65
2022/12/08 02:41:27;;;;;;;23.67;12.52;;;2.80;96.00;;;;;;4954559;29;20186;-65
2022/12/08 02:44:01;;;;;;;26.50;13.68;;;2.80;95.90;;;;;;4955350;29;20304;-65
2022/12/08 02:46:32;;;;;;;24.15;14.88;;;2.70;95.80;;;;;;4954339;29;20193;-64
2022/12/08 02:49:00;;;;;;;19.75;11.82;;;2.80;96.10;;;;;;4955364;29;20193;-64
2022/12/08 02:51:28;;;;;;;18.35;12.70;;;2.80;96.10;;;;;;4954249;29;20185;-65
2022/12/08 02:53:56;;;;;;;18.50;10.88;;;2.90;96.00;;;;;;4955161;29;20201;-64
2022/12/08 02:56:54;;;;;;;18.05;13.05;;;2.90;95.90;;;;;;4954362;29;20194;-65
2022/12/08 02:59:42;;;;;;;26.85;13.48;;;2.90;95.90;;;;;;4952579;29;20194;-64
2022/12/08 03:02:25;;;;;;;17.85;10.73;;;3.00;96.00;;;;;;4955088;29;20261;-65
2022/12/08 03:05:02;;;;;;;26.42;12.45;;;3.00;96.00;;;;;;4954061;29;20221;-64
2022/12/08 03:07:38;;;;;;;19.52;12.68;;;2.90;95.80;;;;;;4954947;29;20265;-65
2022/12/08 03:10:12;;;;;;;18.58;11.73;;;3.00;95.80;;;;;;4954023;29;20197;-64
2022/12/08 03:12:45;;;;;;;27.05;14.05;;;2.90;95.80;;;;;;4954355;29;20232;-65
2022/12/08 03:15:16;;;;;;;25.20;13.93;;;3.00;95.70;;;;;;4953951;29;20619;-64
2022/12/08 03:17:47;;;;;;;23.13;13.85;;;2.90;95.30;;;;;;4954159;29;20217;-64
2022/12/08 03:20:28;;;;;;;17.23;12.95;;;2.90;95.30;;;;;;4954097;29;20237;-64
2022/12/08 03:23:00;;;;;;;19.25;10.60;;;2.70;95.60;;;;;;4954597;29;20229;-64
2022/12/08 03:25:30;;;;;;;13.40;8.93;;;2.70;95.50;;;;;;4952585;29;20190;-64
2022/12/08 03:27:59;;;;;;;12.00;8.98;;;2.70;95.60;;;;;;4954229;29;20285;-65
2022/12/08 03:30:31;;;;;;;12.45;9.70;;;2.60;95.80;;;;;;4954005;29;20194;-65
2022/12/08 03:33:03;;;;;;;15.80;10.63;;;2.60;96.00;;;;;;4954506;29;20234;-65
2022/12/08 03:35:33;;;;;;;12.65;9.20;;;2.70;96.30;;;;;;4953601;29;20700;-65
2022/12/08 03:38:05;;;;;;;17.98;12.18;;;2.70;96.20;;;;;;4954077;29;20241;-65
2022/12/08 03:40:39;;;;;;;16.83;10.63;;;2.80;96.20;;;;;;4953783;29;20189;-65
2022/12/08 03:43:08;;;;;;;21.70;12.93;;;2.80;95.90;;;;;;4954798;28;20201;-64
2022/12/08 03:45:35;;;;;;;17.65;11.68;;;2.70;96.00;;;;;;4953954;29;20194;-65
2022/12/08 03:48:02;;;;;;;17.67;12.57;;;2.80;95.90;;;;;;4954304;29;20228;-64
2022/12/08 03:50:29;;;;;;;19.77;11.57;;;2.80;96.00;;;;;;4953411;29;20716;-65
2022/12/08 03:52:57;;;;;;;20.40;11.60;;;2.70;96.00;;;;;;4953629;29;20273;-65
2022/12/08 03:55:25;;;;;;;20.17;11.68;;;2.70;96.10;;;;;;4953897;29;20292;-64
2022/12/08 03:57:56;;;;;;;18.70;13.10;;;2.80;96.10;;;;;;4953706;29;20190;-65
2022/12/08 04:00:26;;;;;;;17.58;10.88;;;2.80;96.20;;;;;;4954720;29;20593;-64
2022/12/08 04:02:53;;;;;;;15.85;10.98;;;2.80;96.00;;;;;;4953974;29;20701;-64
2022/12/08 04:05:20;;;;;;;16.23;10.23;;;2.80;96.00;;;;;;4954578;29;20229;-64
2022/12/08 04:07:47;;;;;;;18.27;10.85;;;2.80;96.00;;;;;;4953910;29;20190;-64
2022/12/08 04:10:14;;;;;;;18.95;11.15;;;2.80;95.90;;;;;;4954326;29;20189;-65
2022/12/08 04:12:43;;;;;;;16.40;11.57;;;2.90;96.00;;;;;;4953829;29;20240;-65
2022/12/08 04:15:11;;;;;;;18.73;10.98;;;2.90;96.00;;;;;;4954423;29;20225;-64
2022/12/08 04:17:38;;;;;;;19.27;11.65;;;2.90;95.70;;;;;;4953640;29;20669;-64
2022/12/08 04:20:11;;;;;;;17.40;11.77;;;2.90;95.60;;;;;;4954206;29;20185;-65
2022/12/08 04:22:39;;;;;;;15.80;10.98;;;2.90;95.60;;;;;;4935356;29;20203;-64
2022/12/08 04:25:07;;;;;;;17.65;11.32;;;2.90;95.60;;;;;;4935438;29;20607;-64
2022/12/08 04:27:34;;;;;;;16.98;10.85;;;2.90;95.70;;;;;;4953561;29;20185;-65
2022/12/08 04:30:05;;;;;;;15.73;10.38;;;2.90;95.70;;;;;;4954622;29;20190;-64
2022/12/08 04:32:34;;;;;;;16.33;10.95;;;2.90;95.80;;;;;;4953977;29;20283;-65
2022/12/08 04:35:02;;;;;;;15.70;10.80;;;3.00;95.90;;;;;;4954198;29;20412;-65
2022/12/08 04:37:31;;;;;;;19.35;12.90;;;3.00;95.90;;;;;;4952417;29;20186;-65
2022/12/08 04:39:58;;;;;;;22.40;11.30;;;3.00;95.70;;;;;;4954418;29;20660;-65
2022/12/08 04:42:27;;;;;;;17.40;11.20;;;3.00;95.30;;;;;;4953529;29;20182;-64
2022/12/08 04:44:54;;;;;;;17.45;12.02;;;3.00;95.40;;;;;;4954599;29;20194;-65
2022/12/08 04:47:22;;;;;;;18.88;11.68;;;3.10;95.60;;;;;;4953898;29;20235;-65
2022/12/08 04:49:54;;;;;;;18.05;12.00;;;3.10;95.60;;;;;;4953740;29;20194;-65
2022/12/08 04:52:23;;;;;;;14.60;11.70;;;3.00;95.40;;;;;;4953712;28;20284;-64
2022/12/08 04:54:50;;;;;;;21.35;12.13;;;3.00;95.60;;;;;;4957109;29;20739;-64
2022/12/08 04:57:19;;;;;;;17.40;10.57;;;3.00;95.60;;;;;;4957043;29;20229;-64
2022/12/08 04:59:50;;;;;;;17.67;10.85;;;3.00;95.50;;;;;;4957835;29;20240;-65
2022/12/08 05:02:18;;;;;;;17.60;11.20;;;3.00;95.60;;;;;;4956056;29;20189;-64
2022/12/08 05:04:49;;;;;;;17.50;10.13;;;3.00;95.50;;;;;;4957414;29;20232;-64
2022/12/08 05:07:21;;;;;;;17.92;10.75;;;3.00;95.70;;;;;;4957191;29;20572;-65
2022/12/08 05:09:49;;;;;;;16.27;10.40;;;3.00;95.70;;;;;;4957797;29;20578;-65
2022/12/08 05:12:16;;;;;;;13.00;11.13;;;3.00;95.80;;;;;;4956814;29;20198;-65
2022/12/08 05:14:48;;;;;;;17.95;11.30;;;3.00;95.80;;;;;;4957491;29;20268;-65
2022/12/08 05:17:20;;;;;;;14.52;10.07;;;3.00;95.90;;;;;;4956469;29;20241;-65
2022/12/08 05:19:49;;;;;;;14.20;9.05;;;3.10;95.90;;;;;;4957153;29;20194;-64
2022/12/08 05:22:16;;;;;;;14.80;10.57;;;3.10;95.80;;;;;;4956150;29;20249;-65
2022/12/08 05:24:44;;;;;;;13.52;11.15;;;3.00;95.70;;;;;;4957271;29;20201;-65
2022/12/08 05:27:17;;;;;;;15.75;11.10;;;3.00;95.70;;;;;;4955948;29;20198;-65
2022/12/08 05:29:46;;;;;;;15.25;10.55;;;3.00;95.70;;;;;;4956921;29;20233;-64
2022/12/08 05:32:13;;;;;;;15.43;10.52;;;3.10;95.70;;;;;;4955066;29;20197;-65
2022/12/08 05:34:41;;;;;;;14.13;10.00;;;3.10;95.80;;;;;;4956034;29;20186;-64
2022/12/08 05:37:10;;;;;;;12.57;8.77;;;3.10;95.70;;;;;;4956704;29;20229;-65
2022/12/08 05:39:37;;;;;;;12.23;9.30;;;3.10;95.60;;;;;;4955984;29;20190;-64
2022/12/08 05:42:05;;;;;;;14.45;9.63;;;3.10;95.50;;;;;;4956712;29;20201;-65
2022/12/08 05:44:32;;;;;;;12.70;9.07;;;3.10;95.40;;;;;;4956459;29;20218;-65
2022/12/08 05:46:59;;;;;;;11.10;8.05;;;3.10;95.40;;;;;;4957138;29;20202;-64
2022/12/08 05:49:30;;;;;;;15.68;10.05;;;3.10;95.40;;;;;;4955964;29;20258;-64
2022/12/08 05:51:57;;;;;;;12.70;9.30;;;3.00;95.30;;;;;;4957064;29;20221;-65
2022/12/08 05:54:26;;;;;;;16.98;11.32;;;3.00;95.30;;;;;;4955807;29;20190;-65
2022/12/08 05:56:53;;;;;;;13.20;8.77;;;3.00;95.60;;;;;;4956836;29;20221;-64
2022/12/08 05:59:20;;;;;;;13.88;9.50;;;3.00;95.70;;;;;;4955945;29;20185;-65
2022/12/08 06:01:47;;;;;;;15.05;10.95;;;3.00;95.70;;;;;;4956393;29;20229;-64
2022/12/08 06:04:14;;;;;;;17.40;11.32;;;3.00;95.60;;;;;;4954824;28;20198;-64
2022/12/08 06:06:41;;;;;;;16.42;10.85;;;2.90;95.60;;;;;;4955778;29;20193;-64
2022/12/08 06:09:09;;;;;;;20.98;11.88;;;2.90;95.50;;;;;;4955942;29;20194;-64
2022/12/08 06:11:40;;;;;;;20.35;12.57;;;2.90;95.60;;;;;;4955005;29;20708;-65
2022/12/08 06:14:19;;;;;;;18.27;12.95;;;2.90;95.70;;;;;;4955261;29;20629;-64
2022/12/08 06:16:51;;;;;;;14.98;10.40;;;2.90;95.70;;;;;;4950503;29;20217;-64
2022/12/08 06:19:19;;;;;;;14.32;9.82;;;2.90;95.80;;;;;;4945315;29;20209;-64
2022/12/08 06:21:47;;;;;;;17.23;12.02;;;2.90;95.70;;;;;;4956410;29;20234;-64
2022/12/08 06:24:14;;;;;;;16.58;10.70;;;2.90;95.70;;;;;;4954331;29;20198;-65
2022/12/08 06:26:43;;;;;;;17.83;10.40;;;2.90;95.60;;;;;;4955147;29;20182;-65
2022/12/08 06:29:09;;;;;;;12.18;8.65;;;2.90;95.50;;;;;;4955785;29;20213;-65
2022/12/08 06:31:38;;;;;;;13.05;8.80;;;2.80;95.40;;;;;;4955490;29;20587;-64
2022/12/08 06:34:09;;;;;;;16.08;9.82;;;2.80;95.50;;;;;;4953459;29;20245;-64
2022/12/08 06:36:37;;;;;;;18.70;13.50;;;2.80;95.40;;;;;;4956150;29;20594;-65
2022/12/08 06:39:07;;;;;;;21.52;14.13;;;2.80;95.40;;;;;;4954977;29;20218;-64
2022/12/08 06:42:42;;;;;;;17.42;11.77;;;2.80;95.20;;;;;;4955713;29;20193;-65
2022/12/08 06:44:23;;;;;;;23.55;14.50;;;2.70;95.00;;;;;;4955436;28;20190;-65
2022/12/08 06:46:50;;;;;;;24.25;14.30;;;2.70;95.20;;;;;;4955618;29;20245;-65
2022/12/08 06:49:17;;;;;;;23.25;13.95;;;2.70;95.20;;;;;;4953786;29;20225;-65
2022/12/08 06:51:44;;;;;;;20.02;12.30;;;2.80;95.20;;;;;;4955031;29;20197;-64
2022/12/08 06:54:12;;;;;;;16.27;12.30;;;2.80;95.40;;;;;;4955363;29;20201;-64
2022/12/08 06:56:40;;;;;;;18.58;12.40;;;2.70;95.40;;;;;;4951226;29;20209;-65
2022/12/08 06:59:07;;;;;;;20.90;12.38;;;2.70;95.60;;;;;;4951136;29;20202;-64
2022/12/08 07:01:36;;;;;;;15.43;11.13;;;2.70;95.50;;;;;;4955076;29;20249;-64
2022/12/08 07:04:03;;;;;;;16.77;10.23;;;2.70;95.40;;;;;;4953968;29;20254;-64
2022/12/08 07:06:33;;;;;;;14.15;10.48;;;2.80;95.50;;;;;;4935886;29;20229;-64
2022/12/08 07:09:00;;;;;;;11.88;9.48;;;2.80;95.60;;;;;;4935012;29;20622;-64
2022/12/08 07:11:27;;;;;;;19.20;11.95;;;2.80;95.60;;;;;;4935964;29;20249;-64
2022/12/08 07:13:57;;;;;;;14.05;10.32;;;2.80;95.60;;;;;;4931412;29;20206;-65
2022/12/08 07:16:40;;;;;;;16.27;10.35;;;2.80;95.60;;;;;;4935878;29;20226;-64
2022/12/08 07:19:15;;;;;;;13.10;9.25;;;2.80;95.70;;;;;;4933560;29;20557;-65
2022/12/08 07:21:48;;;;;;;15.63;11.20;;;2.90;95.70;;;;;;4934334;29;20194;-64
2022/12/08 07:24:16;;;;;;;16.33;12.27;;;2.90;95.60;;;;;;4935588;29;20190;-64
2022/12/08 07:26:44;;;;;;;14.70;11.05;;;2.90;95.70;;;;;;4934928;29;20198;-64
2022/12/08 07:29:21;;;;;;;15.15;11.15;;;3.00;95.60;;;;;;4934743;29;20186;-64
2022/12/08 07:31:50;;;;;;;14.80;10.05;;;3.00;95.60;;;;;;4934587;29;20194;-64
2022/12/08 07:34:21;;;;;;;13.20;9.75;;;3.10;95.80;;;;;;4931309;29;20206;-64
2022/12/08 07:36:50;;;;;;;14.40;10.48;;;3.20;96.10;;;;;;4935851;29;20273;-64
2022/12/08 07:39:22;;;;;;;17.08;11.90;;;3.40;96.90;;;;;;4935458;29;20198;-65
2022/12/08 07:41:54;;;;;;;11.98;8.25;;;3.60;96.50;;;;;;4931965;29;20202;-65
2022/12/08 07:44:24;;;;;;;13.32;9.60;;;3.70;96.20;;;;;;4933776;29;20216;-64
2022/12/08 07:46:57;;;;;;;18.00;9.68;;;4.00;96.30;;;;;;4933400;29;20234;-64
2022/12/08 07:49:24;;;;;;;13.30;9.65;;;4.30;95.40;;;;;;4929894;29;20210;-65
2022/12/08 07:51:56;;;;;;;15.68;9.90;;;4.60;95.00;;;;;;4933317;29;20194;-64
2022/12/08 07:54:28;;;;;;;20.98;9.13;;;4.80;94.70;;;;;;4933190;29;20665;-64
2022/12/08 07:56:57;;;;;;;12.95;8.90;;;5.00;94.40;;;;;;4933302;29;20238;-65
2022/12/08 07:59:26;;;;;;;13.00;9.88;;;5.10;93.70;;;;;;4933993;29;20246;-65
2022/12/08 08:01:53;;;;;;;13.23;9.02;;;5.20;93.30;;;;;;4931416;29;20254;-65
2022/12/08 08:04:22;;;;;;;12.95;9.93;;;5.30;91.80;;;;;;4934192;29;20250;-65
2022/12/08 08:06:49;;;;;;;11.98;9.30;;;5.40;92.30;;;;;;4952197;29;20221;-65
2022/12/08 08:09:16;;;;;;;13.18;9.57;;;5.40;91.60;;;;;;4951926;29;20602;-64
2022/12/08 08:11:43;;;;;;;12.70;8.85;;;5.60;91.90;;;;;;4948849;29;20193;-65
2022/12/08 08:14:10;;;;;;;13.95;9.90;;;5.70;91.50;;;;;;4950578;29;20249;-64
2022/12/08 08:16:37;;;;;;;17.48;11.68;;;5.70;91.30;;;;;;4951965;29;20225;-64
2022/12/08 08:19:04;;;;;;;14.10;10.00;;;5.90;91.40;;;;;;4950221;29;20656;-64
2022/12/08 08:21:33;;;;;;;12.27;8.70;;;6.00;90.90;;;;;;4948693;29;20268;-65
2022/12/08 08:24:00;;;;;;;13.10;8.75;;;6.10;90.10;;;;;;4945550;29;20669;-65
2022/12/08 08:26:27;;;;;;;11.15;9.13;;;6.20;88.80;;;;;;4949721;29;20245;-65
2022/12/08 08:28:54;;;;;;;12.75;9.70;;;6.20;87.50;;;;;;4951207;28;20221;-65
2022/12/08 08:31:26;;;;;;;11.02;8.48;;;6.30;87.50;;;;;;4953788;29;20186;-65
2022/12/08 08:33:54;;;;;;;12.85;9.18;;;6.40;88.10;;;;;;4955130;29;20612;-65
2022/12/08 08:36:21;;;;;;;12.27;8.88;;;6.70;88.20;;;;;;4953147;29;20260;-65
2022/12/08 08:38:49;;;;;;;11.23;8.00;;;7.10;88.60;;;;;;4956202;29;20201;-64
2022/12/08 08:41:16;;;;;;;10.80;8.43;;;7.60;89.00;;;;;;4951765;29;20241;-65
2022/12/08 08:43:44;;;;;;;11.07;7.75;;;8.00;86.70;;;;;;4953314;29;20201;-65
2022/12/08 08:46:11;;;;;;;10.23;7.90;;;8.20;82.90;;;;;;4954558;29;20200;-65
2022/12/08 08:48:38;;;;;;;12.48;8.45;;;8.50;83.40;;;;;;4955103;29;21842;-65
2022/12/08 08:51:10;;;;;;;12.63;8.27;;;8.90;83.40;;;;;;4955471;29;20245;-64
2022/12/08 08:53:38;;;;;;;10.52;8.85;;;9.40;81.80;;;;;;4954049;29;20194;-64
2022/12/08 08:56:11;;;;;;;11.38;9.18;;;10.00;79.10;;;;;;4954771;29;20214;-65
2022/12/08 08:58:43;;;;;;;12.95;9.02;;;10.60;76.90;;;;;;4955136;29;21278;-65
2022/12/08 09:01:16;;;;;;;11.27;8.32;;;11.20;73.80;;;;;;4952972;29;20528;-64
2022/12/08 09:03:44;;;;;;;12.02;7.90;;;11.70;71.70;;;;;;4954911;29;20180;-65
2022/12/08 09:06:12;;;;;;;9.65;7.75;;;12.20;65.10;;;;;;4953899;29;20219;-64
2022/12/08 09:08:39;;;;;;;9.23;7.38;;;12.20;59.70;;;;;;4954646;29;20193;-65
2022/12/08 09:11:06;;;;;;;9.98;8.35;;;12.30;60.10;;;;;;4955312;29;20256;-65
2022/12/08 09:13:40;;;;;;;8.27;6.70;;;12.40;59.00;;;;;;4953806;29;20197;-65
2022/12/08 09:16:08;;;;;;;11.73;8.90;;;12.40;58.40;;;;;;4953739;29;20520;-65
2022/12/08 09:18:39;;;;;;;9.10;7.50;;;12.50;60.30;;;;;;4952625;29;20537;-66
2022/12/08 09:21:07;;;;;;;8.27;6.80;;;12.90;60.60;;;;;;4953848;29;20885;-64
2022/12/08 09:23:35;;;;;;;8.30;7.03;;;13.20;58.30;;;;;;4952666;29;21012;-65
2022/12/08 09:26:03;;;;;;;9.20;7.53;;;13.50;56.10;;;;;;4955129;29;20445;-64
2022/12/08 09:28:38;;;;;;;8.97;6.53;;;13.50;53.50;;;;;;4954197;29;20433;-65
2022/12/08 09:31:06;;;;;;;8.90;6.83;;;13.10;51.10;;;;;;4952192;29;20448;-64
2022/12/08 09:33:34;;;;;;;10.53;7.87;;;12.40;51.30;;;;;;4954121;29;20827;-65
2022/12/08 09:36:03;;;;;;;9.40;7.20;;;11.80;52.70;;;;;;4954850;29;20448;-65
2022/12/08 09:38:31;;;;;;;10.70;7.90;;;11.40;54.20;;;;;;4954194;29;20568;-66
2022/12/08 09:41:04;;;;;;;8.05;6.07;;;11.30;54.30;;;;;;4951945;28;20456;-65
2022/12/08 09:43:52;;;;;;;8.20;6.37;;;11.20;55.30;;;;;;4952494;29;20678;-64
2022/12/08 09:46:21;;;;;;;8.55;6.18;;;11.40;56.40;;;;;;4950451;29;20469;-65
2022/12/08 09:48:54;;;;;;;10.85;7.82;;;12.20;56.70;;;;;;4954754;29;20691;-64
2022/12/08 09:51:23;;;;;;;10.37;6.10;;;12.70;53.50;;;;;;4953559;29;20220;-64
2022/12/08 09:54:02;;;;;;;8.23;6.43;;;13.20;52.50;;;;;;4949537;29;21309;-65
2022/12/08 09:56:34;;;;;;;10.97;6.63;;;13.70;50.10;;;;;;4953433;29;20485;-65
2022/12/08 09:59:04;;;;;;;8.30;6.30;;;14.20;53.20;;;;;;4954165;29;20438;-64
2022/12/08 10:01:40;;;;;;;7.53;6.10;;;14.60;48.30;;;;;;4951694;29;20565;-65
2022/12/08 10:04:16;;;;;;;7.50;6.03;;;14.70;47.20;;;;;;4955435;28;20449;-65
2022/12/08 10:06:52;;;;;;;7.70;6.17;;;15.10;49.40;;;;;;4951138;29;20441;-65
2022/12/08 10:09:30;;;;;;;7.90;5.10;;;15.50;46.10;;;;;;4952519;29;20445;-64
2022/12/08 10:12:03;;;;;;;7.30;5.60;;;15.90;42.60;;;;;;4952894;29;20457;-65
2022/12/08 10:14:39;;;;;;;6.80;4.90;;;15.60;40.60;;;;;;4949717;29;20437;-65
2022/12/08 10:17:16;;;;;;;5.53;4.33;;;15.60;44.30;;;;;;4953721;29;21081;-65
2022/12/08 10:19:45;;;;;;;5.27;4.10;;;16.10;43.90;;;;;;4951035;29;20761;-64
2022/12/08 10:22:19;;;;;;;14.03;4.70;;;16.60;41.50;;;;;;4951809;29;20453;-65
2022/12/08 10:24:55;;;;;;;7.20;4.50;;;16.90;41.20;;;;;;4953440;29;20434;-64
2022/12/08 10:27:23;;;;;;;8.63;5.20;;;16.70;38.80;;;;;;4950531;29;20459;-64
2022/12/08 10:29:54;;;;;;;7.70;4.47;;;15.90;39.60;;;;;;4950524;29;20524;-65
2022/12/08 10:32:28;;;;;;;4.97;4.33;;;15.10;35.90;;;;;;4948735;29;20450;-65
2022/12/08 10:35:04;;;;;;;6.80;5.10;;;13.90;36.70;;;;;;4950145;29;20916;-65
2022/12/08 10:37:31;;;;;;;5.33;3.30;;;13.40;38.10;;;;;;4953901;29;20968;-64
2022/12/08 10:40:06;;;;;;;6.27;4.70;;;13.20;39.60;;;;;;4953346;29;20492;-65
2022/12/08 10:42:39;;;;;;;5.30;4.40;;;13.00;38.70;;;;;;4952505;29;20444;-65
2022/12/08 10:45:24;;;;;;;6.37;4.33;;;12.70;39.80;;;;;;4952715;29;20437;-64
2022/12/08 10:48:00;;;;;;;4.80;3.70;;;12.50;39.50;;;;;;4953505;29;20441;-65
2022/12/08 10:50:34;;;;;;;5.37;3.80;;;12.30;41.30;;;;;;4946997;28;20445;-65
2022/12/08 10:53:11;;;;;;;5.97;4.10;;;12.10;42.00;;;;;;4953007;29;20441;-65
2022/12/08 10:55:41;;;;;;;5.13;4.20;;;11.80;42.10;;;;;;4953817;29;20440;-64
2022/12/08 10:58:27;;;;;;;6.07;4.67;;;11.50;42.40;;;;;;4953795;29;20485;-64
2022/12/08 11:00:57;;;;;;;6.40;4.00;;;11.30;43.50;;;;;;4916435;28;20865;-63
2022/12/08 11:03:30;;;;;;;5.60;3.70;;;11.00;42.50;;;;;;4947536;28;20445;-63
2022/12/08 11:06:00;;;;;;;5.35;3.55;;;10.70;42.00;;;;;;4947734;28;20472;-62
2022/12/08 11:08:31;;;;;;;4.82;3.95;;;10.30;43.00;;;;;;4946608;29;20208;-63
2022/12/08 11:10:58;;;;;;;8.27;5.55;;;10.20;44.40;;;;;;4949768;28;20588;-63
2022/12/08 11:13:28;;;;;;;5.85;4.55;;;10.00;44.10;;;;;;4948260;29;20187;-63
2022/12/08 11:15:57;;;;;;;4.80;4.20;;;9.70;45.20;;;;;;4948638;29;20613;-65
2022/12/08 11:18:40;;;;;;;5.40;4.38;;;9.60;46.10;;;;;;4948502;28;22701;-65
2022/12/08 11:21:13;;;;;;;7.63;4.80;;;9.40;46.60;;;;;;4948664;29;20226;-65
2022/12/08 11:23:43;;;;;;;6.55;4.55;;;9.30;45.30;;;;;;4946223;29;20195;-65
2022/12/08 11:26:23;;;;;;;6.25;4.57;;;9.20;45.10;;;;;;4931922;28;20484;-63
2022/12/08 11:28:51;;;;;;;6.15;4.78;;;9.10;46.60;;;;;;4938396;28;20250;-65
2022/12/08 11:31:34;;;;;;;6.50;4.43;;;9.10;46.90;;;;;;4920718;28;21019;-65
2022/12/08 11:34:04;;;;;;;7.65;5.35;;;9.10;47.80;;;;;;4947091;28;20201;-65
2022/12/08 11:36:33;;;;;;;10.35;5.05;;;9.20;48.90;;;;;;4945164;29;20502;-65
2022/12/08 11:39:04;;;;;;;8.13;5.40;;;9.30;49.00;;;;;;4920527;28;20871;-65
2022/12/08 11:41:37;;;;;;;7.55;5.10;;;9.30;49.50;;;;;;4932159;29;20309;-65
2022/12/08 11:44:14;;;;;;;8.10;5.63;;;9.40;49.00;;;;;;4934006;29;20873;-65
2022/12/08 11:46:47;;;;;;;6.68;5.25;;;9.50;49.10;;;;;;4949638;29;20217;-65
2022/12/08 11:49:16;;;;;;;6.63;4.80;;;9.60;49.20;;;;;;4911647;28;20202;-65
2022/12/08 11:51:50;;;;;;;8.02;5.57;;;9.70;49.40;;;;;;4932618;29;20199;-65
2022/12/08 11:54:24;;;;;;;8.27;4.93;;;9.70;49.50;;;;;;4944953;29;20246;-66
2022/12/08 11:56:54;;;;;;;8.75;6.07;;;9.70;49.00;;;;;;4950210;29;20319;-63
2022/12/08 11:59:29;;;;;;;7.72;6.10;;;9.70;47.70;;;;;;4952027;29;20192;-64
2022/12/08 12:01:58;;;;;;;7.22;5.80;;;9.70;48.80;;;;;;4951056;28;20201;-64
2022/12/08 12:04:31;;;;;;;8.05;5.75;;;9.80;50.30;;;;;;4954046;29;20243;-63
2022/12/08 12:07:33;;;;;;;9.20;6.80;;;9.80;48.60;;;;;;4949507;29;20197;-64
2022/12/08 12:10:39;;;;;;;9.57;6.10;;;9.90;48.20;;;;;;4954627;29;20730;-63
2022/12/08 12:13:18;;;;;;;8.63;6.38;;;10.00;47.70;;;;;;4935193;28;20196;-63
2022/12/08 12:16:11;;;;;;;11.60;8.00;;;10.00;47.00;;;;;;4953114;29;20204;-63
2022/12/08 12:18:45;;;;;;;11.07;8.55;;;10.20;49.50;;;;;;4955053;29;20231;-63
2022/12/08 12:21:18;;;;;;;11.48;10.07;;;10.50;50.40;;;;;;4956077;29;20625;-64
2022/12/08 12:23:49;;;;;;;9.37;7.00;;;10.80;49.50;;;;;;4950218;29;20188;-64
2022/12/08 12:26:22;;;;;;;10.87;7.70;;;11.10;48.60;;;;;;4956198;29;20455;-63
2022/12/08 12:28:56;;;;;;;7.80;6.20;;;11.40;46.20;;;;;;4955608;29;20483;-64
2022/12/08 12:31:26;;;;;;;8.13;6.20;;;11.80;46.90;;;;;;4955773;29;20507;-64
2022/12/08 12:33:57;;;;;;;9.80;6.60;;;12.20;45.90;;;;;;4955319;29;20473;-64
2022/12/08 12:36:27;;;;;;;10.20;7.30;;;12.30;44.80;;;;;;4954487;29;20445;-64
2022/12/08 12:39:03;;;;;;;10.20;6.87;;;12.30;44.40;;;;;;4950686;29;20493;-64
2022/12/08 12:41:42;;;;;;;12.80;9.90;;;12.20;42.90;;;;;;4955047;29;20447;-64
2022/12/08 12:44:42;;;;;;;13.40;8.43;;;12.10;43.00;;;;;;4955453;29;20931;-64
2022/12/08 12:47:35;;;;;;;9.47;7.07;;;12.00;43.90;;;;;;4950282;28;20436;-64
2022/12/08 12:50:12;;;;;;;10.20;8.90;;;11.70;45.00;;;;;;4949299;28;20453;-65
2022/12/08 12:52:48;;;;;;;11.77;9.50;;;11.80;46.80;;;;;;4953559;29;20499;-64
2022/12/08 12:55:44;;;;;;;9.30;7.67;;;11.90;47.00;;;;;;4951022;29;20455;-65
2022/12/08 12:58:49;;;;;;;12.70;9.00;;;11.90;46.70;;;;;;4952731;29;20543;-64
2022/12/08 13:01:56;;;;;;;10.52;8.50;;;11.50;46.30;;;;;;4951173;29;20437;-64
2022/12/08 13:04:33;;;;;;;15.40;9.02;;;11.00;46.30;;;;;;4951552;29;20494;-64
2022/12/08 13:07:02;;;;;;;16.00;8.48;;;10.60;46.80;;;;;;4953726;29;20740;-64
2022/12/08 13:09:38;;;;;;;11.80;9.30;;;10.40;46.80;;;;;;4950368;29;20197;-64